sensor_id;sensor_type;location;lat;lon;timestamp;P1;durP1;ratioP1;P2;durP2;ratioP2
81180;SDS011;70650;51.408;7.132;2024-03-07T00:00:35;34.67;;;12.77;;
81180;SDS011;70650;51.408;7.132;2024-03-07T00:03:01;38.85;;;12.65;;
81180;SDS011;70650;51.408;7.132;2024-03-07T00:05:27;34.28;;;12.35;;
81180;SDS011;70650;51.408;7.132;2024-03-07T00:07:53;33.92;;;12.50;;
81180;SDS011;70650;51.408;7.132;2024-03-07T00:10:21;36.20;;;12.93;;
81180;SDS011;70650;51.408;7.132;2024-03-07T00:12:46;30.70;;;11.82;;
81180;SDS011;70650;51.408;7.132;2024-03-07T00:15:13;33.00;;;12.40;;
81180;SDS011;70650;51.408;7.132;2024-03-07T00:17:39;34.53;;;12.77;;
81180;SDS011;70650;51.408;7.132;2024-03-07T00:20:07;33.63;;;12.13;;
81180;SDS011;70650;51.408;7.132;2024-03-07T00:22:34;36.63;;;13.30;;
81180;SDS011;70650;51.408;7.132;2024-03-07T00:25:03;38.65;;;12.75;;
81180;SDS011;70650;51.408;7.132;2024-03-07T00:27:30;37.92;;;13.00;;
81180;SDS011;70650;51.408;7.132;2024-03-07T00:29:56;34.20;;;12.82;;
81180;SDS011;70650;51.408;7.132;2024-03-07T00:32:22;34.67;;;13.57;;
81180;SDS011;70650;51.408;7.132;2024-03-07T00:34:48;39.40;;;14.38;;
81180;SDS011;70650;51.408;7.132;2024-03-07T00:37:14;38.65;;;12.48;;
81180;SDS011;70650;51.408;7.132;2024-03-07T00:39:47;30.77;;;12.20;;
81180;SDS011;70650;51.408;7.132;2024-03-07T00:42:12;32.55;;;12.05;;
81180;SDS011;70650;51.408;7.132;2024-03-07T00:44:38;31.77;;;12.13;;
81180;SDS011;70650;51.408;7.132;2024-03-07T00:47:03;34.00;;;11.27;;
81180;SDS011;70650;51.408;7.132;2024-03-07T00:49:29;30.10;;;11.73;;
81180;SDS011;70650;51.408;7.132;2024-03-07T00:51:55;31.63;;;12.38;;
81180;SDS011;70650;51.408;7.132;2024-03-07T00:54:21;28.90;;;11.27;;
81180;SDS011;70650;51.408;7.132;2024-03-07T00:56:47;33.70;;;13.07;;
81180;SDS011;70650;51.408;7.132;2024-03-07T00:59:14;30.95;;;12.05;;
81180;SDS011;70650;51.408;7.132;2024-03-07T01:01:40;29.55;;;11.20;;
81180;SDS011;70650;51.408;7.132;2024-03-07T01:04:07;33.90;;;12.27;;
81180;SDS011;70650;51.408;7.132;2024-03-07T01:06:33;34.17;;;12.27;;
81180;SDS011;70650;51.408;7.132;2024-03-07T01:09:01;36.22;;;12.35;;
81180;SDS011;70650;51.408;7.132;2024-03-07T01:11:27;32.17;;;12.35;;
81180;SDS011;70650;51.408;7.132;2024-03-07T01:13:53;36.20;;;12.30;;
81180;SDS011;70650;51.408;7.132;2024-03-07T01:16:18;35.35;;;13.13;;
81180;SDS011;70650;51.408;7.132;2024-03-07T01:18:44;29.03;;;10.77;;
81180;SDS011;70650;51.408;7.132;2024-03-07T01:21:09;33.53;;;12.23;;
81180;SDS011;70650;51.408;7.132;2024-03-07T01:23:34;33.80;;;13.40;;
81180;SDS011;70650;51.408;7.132;2024-03-07T01:26:00;34.28;;;12.73;;
81180;SDS011;70650;51.408;7.132;2024-03-07T01:28:26;38.10;;;13.95;;
81180;SDS011;70650;51.408;7.132;2024-03-07T01:30:54;39.47;;;13.93;;
81180;SDS011;70650;51.408;7.132;2024-03-07T01:33:20;38.13;;;14.20;;
81180;SDS011;70650;51.408;7.132;2024-03-07T01:35:45;40.50;;;13.67;;
81180;SDS011;70650;51.408;7.132;2024-03-07T01:38:11;28.83;;;11.75;;
81180;SDS011;70650;51.408;7.132;2024-03-07T01:40:39;28.60;;;10.85;;
81180;SDS011;70650;51.408;7.132;2024-03-07T01:43:04;34.20;;;13.18;;
81180;SDS011;70650;51.408;7.132;2024-03-07T01:45:30;38.08;;;12.32;;
81180;SDS011;70650;51.408;7.132;2024-03-07T01:47:56;32.17;;;12.73;;
81180;SDS011;70650;51.408;7.132;2024-03-07T01:50:21;38.83;;;13.02;;
81180;SDS011;70650;51.408;7.132;2024-03-07T01:52:46;44.35;;;14.50;;
81180;SDS011;70650;51.408;7.132;2024-03-07T01:55:15;47.38;;;15.10;;
81180;SDS011;70650;51.408;7.132;2024-03-07T01:57:44;48.67;;;15.95;;
81180;SDS011;70650;51.408;7.132;2024-03-07T02:00:10;43.47;;;14.23;;
81180;SDS011;70650;51.408;7.132;2024-03-07T02:02:36;45.38;;;16.05;;
81180;SDS011;70650;51.408;7.132;2024-03-07T02:05:01;49.70;;;16.23;;
81180;SDS011;70650;51.408;7.132;2024-03-07T02:07:27;44.13;;;16.02;;
81180;SDS011;70650;51.408;7.132;2024-03-07T02:10:02;60.92;;;16.17;;
81180;SDS011;70650;51.408;7.132;2024-03-07T02:12:29;61.42;;;15.93;;
81180;SDS011;70650;51.408;7.132;2024-03-07T02:14:55;61.53;;;16.70;;
81180;SDS011;70650;51.408;7.132;2024-03-07T02:17:22;61.72;;;17.58;;
81180;SDS011;70650;51.408;7.132;2024-03-07T02:19:48;55.15;;;15.43;;
81180;SDS011;70650;51.408;7.132;2024-03-07T02:22:13;54.27;;;16.47;;
81180;SDS011;70650;51.408;7.132;2024-03-07T02:24:39;49.20;;;15.98;;
81180;SDS011;70650;51.408;7.132;2024-03-07T02:27:04;45.70;;;14.87;;
81180;SDS011;70650;51.408;7.132;2024-03-07T02:29:29;54.60;;;15.37;;
81180;SDS011;70650;51.408;7.132;2024-03-07T02:31:55;98.47;;;17.05;;
81180;SDS011;70650;51.408;7.132;2024-03-07T02:34:22;66.68;;;17.08;;
81180;SDS011;70650;51.408;7.132;2024-03-07T02:36:47;47.08;;;16.02;;
81180;SDS011;70650;51.408;7.132;2024-03-07T02:39:12;60.20;;;17.70;;
81180;SDS011;70650;51.408;7.132;2024-03-07T02:41:38;45.97;;;15.37;;
81180;SDS011;70650;51.408;7.132;2024-03-07T02:44:03;52.20;;;16.13;;
81180;SDS011;70650;51.408;7.132;2024-03-07T02:46:29;77.40;;;16.98;;
81180;SDS011;70650;51.408;7.132;2024-03-07T02:48:54;65.10;;;16.95;;
81180;SDS011;70650;51.408;7.132;2024-03-07T02:51:19;74.57;;;16.33;;
81180;SDS011;70650;51.408;7.132;2024-03-07T02:53:45;58.22;;;15.50;;
81180;SDS011;70650;51.408;7.132;2024-03-07T02:56:10;74.23;;;16.30;;
81180;SDS011;70650;51.408;7.132;2024-03-07T02:58:36;58.75;;;16.50;;
81180;SDS011;70650;51.408;7.132;2024-03-07T03:01:01;40.42;;;15.15;;
81180;SDS011;70650;51.408;7.132;2024-03-07T03:03:28;60.85;;;16.58;;
81180;SDS011;70650;51.408;7.132;2024-03-07T03:05:56;47.25;;;15.40;;
81180;SDS011;70650;51.408;7.132;2024-03-07T03:08:22;43.80;;;15.80;;
81180;SDS011;70650;51.408;7.132;2024-03-07T03:10:48;52.75;;;16.52;;
81180;SDS011;70650;51.408;7.132;2024-03-07T03:13:16;74.82;;;17.10;;
81180;SDS011;70650;51.408;7.132;2024-03-07T03:15:41;47.63;;;16.30;;
81180;SDS011;70650;51.408;7.132;2024-03-07T03:18:07;63.30;;;16.08;;
81180;SDS011;70650;51.408;7.132;2024-03-07T03:20:32;64.70;;;17.23;;
81180;SDS011;70650;51.408;7.132;2024-03-07T03:23:03;87.85;;;17.13;;
81180;SDS011;70650;51.408;7.132;2024-03-07T03:25:36;87.65;;;17.92;;
81180;SDS011;70650;51.408;7.132;2024-03-07T03:28:03;73.80;;;16.67;;
81180;SDS011;70650;51.408;7.132;2024-03-07T03:30:30;63.83;;;17.65;;
81180;SDS011;70650;51.408;7.132;2024-03-07T03:32:55;51.35;;;17.20;;
81180;SDS011;70650;51.408;7.132;2024-03-07T03:35:20;43.33;;;15.80;;
81180;SDS011;70650;51.408;7.132;2024-03-07T03:37:46;52.63;;;16.83;;
81180;SDS011;70650;51.408;7.132;2024-03-07T03:40:12;47.50;;;16.45;;
81180;SDS011;70650;51.408;7.132;2024-03-07T03:42:41;43.00;;;15.85;;
81180;SDS011;70650;51.408;7.132;2024-03-07T03:45:08;41.17;;;15.23;;
81180;SDS011;70650;51.408;7.132;2024-03-07T03:47:39;43.85;;;15.40;;
81180;SDS011;70650;51.408;7.132;2024-03-07T03:50:05;45.85;;;14.88;;
81180;SDS011;70650;51.408;7.132;2024-03-07T03:52:31;53.92;;;15.77;;
81180;SDS011;70650;51.408;7.132;2024-03-07T03:54:57;45.33;;;15.63;;
81180;SDS011;70650;51.408;7.132;2024-03-07T03:57:27;41.17;;;14.57;;
81180;SDS011;70650;51.408;7.132;2024-03-07T03:59:54;43.78;;;16.48;;
81180;SDS011;70650;51.408;7.132;2024-03-07T04:02:20;38.28;;;14.50;;
81180;SDS011;70650;51.408;7.132;2024-03-07T04:04:45;54.42;;;16.25;;
81180;SDS011;70650;51.408;7.132;2024-03-07T04:07:11;39.17;;;14.50;;
81180;SDS011;70650;51.408;7.132;2024-03-07T04:09:41;36.03;;;14.07;;
81180;SDS011;70650;51.408;7.132;2024-03-07T04:12:07;41.70;;;15.50;;
81180;SDS011;70650;51.408;7.132;2024-03-07T04:14:35;36.15;;;14.02;;
81180;SDS011;70650;51.408;7.132;2024-03-07T04:17:10;34.80;;;13.05;;
81180;SDS011;70650;51.408;7.132;2024-03-07T04:19:39;50.15;;;14.85;;
81180;SDS011;70650;51.408;7.132;2024-03-07T04:22:05;46.65;;;14.65;;
81180;SDS011;70650;51.408;7.132;2024-03-07T04:24:31;45.00;;;15.40;;
81180;SDS011;70650;51.408;7.132;2024-03-07T04:27:00;40.67;;;14.85;;
81180;SDS011;70650;51.408;7.132;2024-03-07T04:29:26;41.35;;;14.93;;
81180;SDS011;70650;51.408;7.132;2024-03-07T04:31:52;37.60;;;14.77;;
81180;SDS011;70650;51.408;7.132;2024-03-07T04:34:17;39.63;;;14.77;;
81180;SDS011;70650;51.408;7.132;2024-03-07T04:36:43;36.22;;;13.55;;
81180;SDS011;70650;51.408;7.132;2024-03-07T04:39:09;38.70;;;14.30;;
81180;SDS011;70650;51.408;7.132;2024-03-07T04:41:47;39.58;;;14.27;;
81180;SDS011;70650;51.408;7.132;2024-03-07T04:44:13;41.60;;;15.30;;
81180;SDS011;70650;51.408;7.132;2024-03-07T04:46:38;41.70;;;14.57;;
81180;SDS011;70650;51.408;7.132;2024-03-07T04:49:07;38.33;;;13.93;;
81180;SDS011;70650;51.408;7.132;2024-03-07T04:51:33;39.38;;;14.98;;
81180;SDS011;70650;51.408;7.132;2024-03-07T04:53:58;47.97;;;13.80;;
81180;SDS011;70650;51.408;7.132;2024-03-07T04:56:23;36.70;;;14.27;;
81180;SDS011;70650;51.408;7.132;2024-03-07T04:58:48;41.90;;;15.33;;
81180;SDS011;70650;51.408;7.132;2024-03-07T05:01:15;43.35;;;13.95;;
81180;SDS011;70650;51.408;7.132;2024-03-07T05:03:40;34.83;;;13.38;;
81180;SDS011;70650;51.408;7.132;2024-03-07T05:06:07;40.20;;;14.98;;
81180;SDS011;70650;51.408;7.132;2024-03-07T05:08:32;44.47;;;15.32;;
81180;SDS011;70650;51.408;7.132;2024-03-07T05:10:58;46.67;;;15.32;;
81180;SDS011;70650;51.408;7.132;2024-03-07T05:13:23;45.47;;;16.20;;
81180;SDS011;70650;51.408;7.132;2024-03-07T05:15:49;42.85;;;15.05;;
81180;SDS011;70650;51.408;7.132;2024-03-07T05:18:15;44.85;;;15.40;;
81180;SDS011;70650;51.408;7.132;2024-03-07T05:20:42;45.33;;;15.70;;
81180;SDS011;70650;51.408;7.132;2024-03-07T05:23:07;45.47;;;14.80;;
81180;SDS011;70650;51.408;7.132;2024-03-07T05:25:35;40.38;;;14.65;;
81180;SDS011;70650;51.408;7.132;2024-03-07T05:28:01;47.10;;;15.48;;
81180;SDS011;70650;51.408;7.132;2024-03-07T05:30:27;46.85;;;15.70;;
81180;SDS011;70650;51.408;7.132;2024-03-07T05:32:53;41.08;;;14.98;;
81180;SDS011;70650;51.408;7.132;2024-03-07T05:35:18;42.50;;;16.65;;
81180;SDS011;70650;51.408;7.132;2024-03-07T05:37:44;42.92;;;15.98;;
81180;SDS011;70650;51.408;7.132;2024-03-07T05:40:12;40.55;;;16.02;;
81180;SDS011;70650;51.408;7.132;2024-03-07T05:42:37;39.75;;;15.32;;
81180;SDS011;70650;51.408;7.132;2024-03-07T05:45:03;42.57;;;15.13;;
81180;SDS011;70650;51.408;7.132;2024-03-07T05:47:32;39.20;;;15.27;;
81180;SDS011;70650;51.408;7.132;2024-03-07T05:49:57;38.20;;;14.43;;
81180;SDS011;70650;51.408;7.132;2024-03-07T05:52:23;37.37;;;13.97;;
81180;SDS011;70650;51.408;7.132;2024-03-07T05:54:48;41.60;;;14.83;;
81180;SDS011;70650;51.408;7.132;2024-03-07T05:57:13;39.15;;;14.80;;
81180;SDS011;70650;51.408;7.132;2024-03-07T05:59:39;35.13;;;14.70;;
81180;SDS011;70650;51.408;7.132;2024-03-07T06:02:04;41.50;;;15.57;;
81180;SDS011;70650;51.408;7.132;2024-03-07T06:04:30;34.92;;;14.38;;
81180;SDS011;70650;51.408;7.132;2024-03-07T06:06:57;40.88;;;14.73;;
81180;SDS011;70650;51.408;7.132;2024-03-07T06:09:22;36.22;;;14.40;;
81180;SDS011;70650;51.408;7.132;2024-03-07T06:11:47;42.07;;;15.27;;
81180;SDS011;70650;51.408;7.132;2024-03-07T06:14:13;41.35;;;16.23;;
81180;SDS011;70650;51.408;7.132;2024-03-07T06:16:39;39.83;;;15.07;;
81180;SDS011;70650;51.408;7.132;2024-03-07T06:19:06;43.50;;;15.88;;
81180;SDS011;70650;51.408;7.132;2024-03-07T06:21:32;41.17;;;14.77;;
81180;SDS011;70650;51.408;7.132;2024-03-07T06:23:59;40.00;;;13.63;;
81180;SDS011;70650;51.408;7.132;2024-03-07T06:26:35;38.58;;;13.73;;
81180;SDS011;70650;51.408;7.132;2024-03-07T06:29:24;38.15;;;14.80;;
81180;SDS011;70650;51.408;7.132;2024-03-07T06:31:51;38.50;;;14.13;;
81180;SDS011;70650;51.408;7.132;2024-03-07T06:34:18;36.95;;;13.15;;
81180;SDS011;70650;51.408;7.132;2024-03-07T06:36:44;38.15;;;14.00;;
81180;SDS011;70650;51.408;7.132;2024-03-07T06:39:09;31.95;;;12.93;;
81180;SDS011;70650;51.408;7.132;2024-03-07T06:41:38;37.10;;;14.10;;
81180;SDS011;70650;51.408;7.132;2024-03-07T06:44:04;41.92;;;13.85;;
81180;SDS011;70650;51.408;7.132;2024-03-07T06:46:29;39.78;;;14.77;;
81180;SDS011;70650;51.408;7.132;2024-03-07T06:48:56;41.08;;;14.45;;
81180;SDS011;70650;51.408;7.132;2024-03-07T06:51:22;40.30;;;15.80;;
81180;SDS011;70650;51.408;7.132;2024-03-07T06:53:47;42.42;;;16.30;;
81180;SDS011;70650;51.408;7.132;2024-03-07T06:56:13;38.08;;;13.70;;
81180;SDS011;70650;51.408;7.132;2024-03-07T06:58:39;39.92;;;14.45;;
81180;SDS011;70650;51.408;7.132;2024-03-07T07:01:07;42.00;;;15.30;;
81180;SDS011;70650;51.408;7.132;2024-03-07T07:03:35;46.00;;;15.88;;
81180;SDS011;70650;51.408;7.132;2024-03-07T07:06:01;41.08;;;15.07;;
81180;SDS011;70650;51.408;7.132;2024-03-07T07:08:27;41.05;;;15.07;;
81180;SDS011;70650;51.408;7.132;2024-03-07T07:10:54;40.35;;;15.27;;
81180;SDS011;70650;51.408;7.132;2024-03-07T07:13:20;36.60;;;14.35;;
81180;SDS011;70650;51.408;7.132;2024-03-07T07:15:46;40.28;;;14.82;;
81180;SDS011;70650;51.408;7.132;2024-03-07T07:18:11;41.33;;;14.20;;
81180;SDS011;70650;51.408;7.132;2024-03-07T07:20:38;39.80;;;15.15;;
81180;SDS011;70650;51.408;7.132;2024-03-07T07:23:04;41.90;;;14.82;;
81180;SDS011;70650;51.408;7.132;2024-03-07T07:25:30;37.50;;;14.68;;
81180;SDS011;70650;51.408;7.132;2024-03-07T07:27:56;37.42;;;13.52;;
81180;SDS011;70650;51.408;7.132;2024-03-07T07:30:22;37.38;;;14.45;;
81180;SDS011;70650;51.408;7.132;2024-03-07T07:32:48;40.50;;;15.13;;
81180;SDS011;70650;51.408;7.132;2024-03-07T07:35:14;40.35;;;15.50;;
81180;SDS011;70650;51.408;7.132;2024-03-07T07:37:40;37.80;;;14.45;;
81180;SDS011;70650;51.408;7.132;2024-03-07T07:40:07;36.28;;;14.38;;
81180;SDS011;70650;51.408;7.132;2024-03-07T07:42:38;41.40;;;14.75;;
81180;SDS011;70650;51.408;7.132;2024-03-07T07:45:08;43.22;;;14.90;;
81180;SDS011;70650;51.408;7.132;2024-03-07T07:47:38;42.78;;;14.85;;
81180;SDS011;70650;51.408;7.132;2024-03-07T07:50:10;44.17;;;14.85;;
81180;SDS011;70650;51.408;7.132;2024-03-07T07:52:43;44.40;;;15.60;;
81180;SDS011;70650;51.408;7.132;2024-03-07T07:55:11;45.85;;;14.93;;
81180;SDS011;70650;51.408;7.132;2024-03-07T07:57:42;48.08;;;15.13;;
81180;SDS011;70650;51.408;7.132;2024-03-07T08:00:12;39.22;;;14.60;;
81180;SDS011;70650;51.408;7.132;2024-03-07T08:02:46;40.25;;;14.88;;
81180;SDS011;70650;51.408;7.132;2024-03-07T08:05:16;44.05;;;15.68;;
81180;SDS011;70650;51.408;7.132;2024-03-07T08:07:43;42.92;;;14.75;;
81180;SDS011;70650;51.408;7.132;2024-03-07T08:10:10;46.13;;;15.82;;
81180;SDS011;70650;51.408;7.132;2024-03-07T08:12:35;37.65;;;15.10;;
81180;SDS011;70650;51.408;7.132;2024-03-07T08:15:02;40.65;;;14.65;;
81180;SDS011;70650;51.408;7.132;2024-03-07T08:17:28;40.58;;;16.02;;
81180;SDS011;70650;51.408;7.132;2024-03-07T08:19:53;36.47;;;14.20;;
81180;SDS011;70650;51.408;7.132;2024-03-07T08:22:19;37.80;;;14.18;;
81180;SDS011;70650;51.408;7.132;2024-03-07T08:24:44;32.33;;;12.85;;
81180;SDS011;70650;51.408;7.132;2024-03-07T08:27:10;35.97;;;13.77;;
81180;SDS011;70650;51.408;7.132;2024-03-07T08:29:36;37.63;;;14.32;;
81180;SDS011;70650;51.408;7.132;2024-03-07T08:32:01;32.92;;;12.05;;
81180;SDS011;70650;51.408;7.132;2024-03-07T08:34:27;38.67;;;13.65;;
81180;SDS011;70650;51.408;7.132;2024-03-07T08:36:53;33.10;;;13.23;;
81180;SDS011;70650;51.408;7.132;2024-03-07T08:39:18;36.93;;;13.40;;
81180;SDS011;70650;51.408;7.132;2024-03-07T08:41:44;32.50;;;11.73;;
81180;SDS011;70650;51.408;7.132;2024-03-07T08:44:11;33.50;;;12.77;;
81180;SDS011;70650;51.408;7.132;2024-03-07T08:46:38;36.40;;;14.18;;
81180;SDS011;70650;51.408;7.132;2024-03-07T08:49:03;31.92;;;12.23;;
81180;SDS011;70650;51.408;7.132;2024-03-07T08:51:30;29.83;;;12.10;;
81180;SDS011;70650;51.408;7.132;2024-03-07T08:53:55;30.50;;;11.90;;
81180;SDS011;70650;51.408;7.132;2024-03-07T08:56:21;31.23;;;12.70;;
81180;SDS011;70650;51.408;7.132;2024-03-07T08:58:47;31.92;;;13.32;;
81180;SDS011;70650;51.408;7.132;2024-03-07T09:01:13;31.15;;;11.63;;
81180;SDS011;70650;51.408;7.132;2024-03-07T09:03:38;32.50;;;12.03;;
81180;SDS011;70650;51.408;7.132;2024-03-07T09:06:03;31.27;;;12.00;;
81180;SDS011;70650;51.408;7.132;2024-03-07T09:08:31;32.03;;;11.55;;
81180;SDS011;70650;51.408;7.132;2024-03-07T09:10:56;29.70;;;11.03;;
81180;SDS011;70650;51.408;7.132;2024-03-07T09:13:22;32.13;;;12.15;;
81180;SDS011;70650;51.408;7.132;2024-03-07T09:15:48;31.25;;;11.88;;
81180;SDS011;70650;51.408;7.132;2024-03-07T09:18:13;30.57;;;11.60;;
81180;SDS011;70650;51.408;7.132;2024-03-07T09:20:39;29.77;;;10.73;;
81180;SDS011;70650;51.408;7.132;2024-03-07T09:23:05;29.38;;;11.10;;
81180;SDS011;70650;51.408;7.132;2024-03-07T09:25:31;32.42;;;11.57;;
81180;SDS011;70650;51.408;7.132;2024-03-07T09:27:59;27.55;;;11.25;;
81180;SDS011;70650;51.408;7.132;2024-03-07T09:30:25;30.13;;;11.50;;
81180;SDS011;70650;51.408;7.132;2024-03-07T09:32:52;26.05;;;10.40;;
81180;SDS011;70650;51.408;7.132;2024-03-07T09:35:20;26.73;;;10.18;;
81180;SDS011;70650;51.408;7.132;2024-03-07T09:37:46;25.50;;;10.30;;
81180;SDS011;70650;51.408;7.132;2024-03-07T09:40:11;23.92;;;9.65;;
81180;SDS011;70650;51.408;7.132;2024-03-07T09:45:09;24.40;;;9.13;;
81180;SDS011;70650;51.408;7.132;2024-03-07T09:47:41;23.25;;;9.18;;
81180;SDS011;70650;51.408;7.132;2024-03-07T09:50:09;27.17;;;9.52;;
81180;SDS011;70650;51.408;7.132;2024-03-07T09:52:35;22.23;;;8.50;;
81180;SDS011;70650;51.408;7.132;2024-03-07T09:55:00;19.50;;;9.07;;
81180;SDS011;70650;51.408;7.132;2024-03-07T09:57:26;23.90;;;9.10;;
81180;SDS011;70650;51.408;7.132;2024-03-07T09:59:52;23.75;;;9.43;;
81180;SDS011;70650;51.408;7.132;2024-03-07T10:02:19;21.15;;;8.70;;
81180;SDS011;70650;51.408;7.132;2024-03-07T10:04:48;21.75;;;8.45;;
81180;SDS011;70650;51.408;7.132;2024-03-07T10:07:15;28.95;;;9.02;;
81180;SDS011;70650;51.408;7.132;2024-03-07T10:09:41;19.13;;;8.25;;
81180;SDS011;70650;51.408;7.132;2024-03-07T10:12:07;21.55;;;8.50;;
81180;SDS011;70650;51.408;7.132;2024-03-07T10:14:38;20.65;;;8.65;;
81180;SDS011;70650;51.408;7.132;2024-03-07T10:17:03;23.50;;;8.75;;
81180;SDS011;70650;51.408;7.132;2024-03-07T10:19:29;22.00;;;9.27;;
81180;SDS011;70650;51.408;7.132;2024-03-07T10:21:55;19.88;;;9.45;;
81180;SDS011;70650;51.408;7.132;2024-03-07T10:24:27;23.02;;;9.30;;
81180;SDS011;70650;51.408;7.132;2024-03-07T10:26:53;19.48;;;8.07;;
81180;SDS011;70650;51.408;7.132;2024-03-07T10:29:21;20.95;;;9.57;;
81180;SDS011;70650;51.408;7.132;2024-03-07T10:31:47;22.25;;;8.93;;
81180;SDS011;70650;51.408;7.132;2024-03-07T10:34:15;20.20;;;9.05;;
81180;SDS011;70650;51.408;7.132;2024-03-07T10:36:42;21.27;;;8.82;;
81180;SDS011;70650;51.408;7.132;2024-03-07T10:39:08;20.63;;;9.15;;
81180;SDS011;70650;51.408;7.132;2024-03-07T10:44:20;20.15;;;8.20;;
81180;SDS011;70650;51.408;7.132;2024-03-07T10:46:54;19.00;;;8.25;;
81180;SDS011;70650;51.408;7.132;2024-03-07T10:49:20;16.95;;;8.07;;
81180;SDS011;70650;51.408;7.132;2024-03-07T10:52:10;18.58;;;8.65;;
81180;SDS011;70650;51.408;7.132;2024-03-07T10:54:56;21.02;;;8.10;;
81180;SDS011;70650;51.408;7.132;2024-03-07T11:00:05;20.52;;;7.95;;
81180;SDS011;70650;51.408;7.132;2024-03-07T11:02:51;19.35;;;8.40;;
81180;SDS011;70650;51.408;7.132;2024-03-07T11:05:19;19.33;;;8.10;;
81180;SDS011;70650;51.408;7.132;2024-03-07T11:07:49;18.58;;;8.75;;
81180;SDS011;70650;51.408;7.132;2024-03-07T11:10:15;21.65;;;8.70;;
81180;SDS011;70650;51.408;7.132;2024-03-07T11:12:42;22.23;;;8.52;;
81180;SDS011;70650;51.408;7.132;2024-03-07T11:15:11;19.65;;;8.75;;
81180;SDS011;70650;51.408;7.132;2024-03-07T11:17:43;18.98;;;8.48;;
81180;SDS011;70650;51.408;7.132;2024-03-07T11:22:46;20.67;;;8.85;;
81180;SDS011;70650;51.408;7.132;2024-03-07T11:25:11;18.60;;;8.93;;
81180;SDS011;70650;51.408;7.132;2024-03-07T11:27:37;19.80;;;8.90;;
81180;SDS011;70650;51.408;7.132;2024-03-07T11:30:07;18.60;;;8.00;;
81180;SDS011;70650;51.408;7.132;2024-03-07T11:32:39;22.73;;;8.25;;
81180;SDS011;70650;51.408;7.132;2024-03-07T11:35:11;18.45;;;7.80;;
81180;SDS011;70650;51.408;7.132;2024-03-07T11:37:42;17.40;;;8.23;;
81180;SDS011;70650;51.408;7.132;2024-03-07T11:40:11;20.73;;;8.48;;
81180;SDS011;70650;51.408;7.132;2024-03-07T11:42:43;18.75;;;9.02;;
81180;SDS011;70650;51.408;7.132;2024-03-07T11:45:13;19.00;;;7.68;;
81180;SDS011;70650;51.408;7.132;2024-03-07T11:47:58;18.30;;;8.13;;
81180;SDS011;70650;51.408;7.132;2024-03-07T11:50:38;15.38;;;7.72;;
81180;SDS011;70650;51.408;7.132;2024-03-07T11:53:05;18.60;;;8.50;;
81180;SDS011;70650;51.408;7.132;2024-03-07T11:55:32;18.35;;;8.60;;
81180;SDS011;70650;51.408;7.132;2024-03-07T11:58:13;18.63;;;7.85;;
81180;SDS011;70650;51.408;7.132;2024-03-07T12:00:41;20.30;;;8.35;;
81180;SDS011;70650;51.408;7.132;2024-03-07T12:03:10;20.50;;;8.77;;
81180;SDS011;70650;51.408;7.132;2024-03-07T12:05:50;18.48;;;8.00;;
81180;SDS011;70650;51.408;7.132;2024-03-07T12:08:20;21.65;;;8.77;;
81180;SDS011;70650;51.408;7.132;2024-03-07T12:10:47;17.70;;;8.65;;
81180;SDS011;70650;51.408;7.132;2024-03-07T12:13:18;20.75;;;8.93;;
81180;SDS011;70650;51.408;7.132;2024-03-07T12:15:45;19.58;;;8.55;;
81180;SDS011;70650;51.408;7.132;2024-03-07T12:18:11;20.40;;;9.32;;
81180;SDS011;70650;51.408;7.132;2024-03-07T12:23:11;18.73;;;7.88;;
81180;SDS011;70650;51.408;7.132;2024-03-07T12:25:37;16.83;;;7.93;;
81180;SDS011;70650;51.408;7.132;2024-03-07T12:30:48;16.63;;;8.00;;
81180;SDS011;70650;51.408;7.132;2024-03-07T12:35:41;20.27;;;8.93;;
81180;SDS011;70650;51.408;7.132;2024-03-07T12:38:08;18.73;;;8.45;;
81180;SDS011;70650;51.408;7.132;2024-03-07T12:40:39;18.67;;;8.55;;
81180;SDS011;70650;51.408;7.132;2024-03-07T12:45:51;18.73;;;8.60;;
81180;SDS011;70650;51.408;7.132;2024-03-07T12:48:17;20.05;;;8.75;;
81180;SDS011;70650;51.408;7.132;2024-03-07T12:50:48;20.83;;;8.27;;
81180;SDS011;70650;51.408;7.132;2024-03-07T12:53:20;21.40;;;8.40;;
81180;SDS011;70650;51.408;7.132;2024-03-07T12:55:50;19.27;;;7.75;;
81180;SDS011;70650;51.408;7.132;2024-03-07T12:58:17;20.73;;;8.30;;
81180;SDS011;70650;51.408;7.132;2024-03-07T13:00:43;18.33;;;7.35;;
81180;SDS011;70650;51.408;7.132;2024-03-07T13:03:08;18.17;;;7.97;;
81180;SDS011;70650;51.408;7.132;2024-03-07T13:05:39;18.92;;;8.60;;
81180;SDS011;70650;51.408;7.132;2024-03-07T13:08:07;17.45;;;8.05;;
81180;SDS011;70650;51.408;7.132;2024-03-07T13:10:36;18.92;;;7.43;;
81180;SDS011;70650;51.408;7.132;2024-03-07T13:13:06;17.67;;;7.25;;
81180;SDS011;70650;51.408;7.132;2024-03-07T13:15:31;18.30;;;7.68;;
81180;SDS011;70650;51.408;7.132;2024-03-07T13:17:57;17.10;;;7.23;;
81180;SDS011;70650;51.408;7.132;2024-03-07T13:20:22;17.02;;;7.95;;
81180;SDS011;70650;51.408;7.132;2024-03-07T13:22:51;18.13;;;8.13;;
81180;SDS011;70650;51.408;7.132;2024-03-07T13:25:22;18.88;;;6.93;;
81180;SDS011;70650;51.408;7.132;2024-03-07T13:28:12;15.75;;;6.82;;
81180;SDS011;70650;51.408;7.132;2024-03-07T13:30:41;16.27;;;6.65;;
81180;SDS011;70650;51.408;7.132;2024-03-07T13:33:08;18.33;;;6.65;;
81180;SDS011;70650;51.408;7.132;2024-03-07T13:35:38;16.38;;;6.55;;
81180;SDS011;70650;51.408;7.132;2024-03-07T13:38:04;15.60;;;6.15;;
81180;SDS011;70650;51.408;7.132;2024-03-07T13:40:30;15.38;;;6.13;;
81180;SDS011;70650;51.408;7.132;2024-03-07T13:42:56;15.18;;;6.45;;
81180;SDS011;70650;51.408;7.132;2024-03-07T13:45:25;15.63;;;6.32;;
81180;SDS011;70650;51.408;7.132;2024-03-07T13:47:51;15.00;;;6.57;;
81180;SDS011;70650;51.408;7.132;2024-03-07T13:50:21;14.32;;;5.78;;
81180;SDS011;70650;51.408;7.132;2024-03-07T13:52:50;15.13;;;6.25;;
81180;SDS011;70650;51.408;7.132;2024-03-07T13:55:33;12.70;;;5.40;;
81180;SDS011;70650;51.408;7.132;2024-03-07T13:58:12;14.00;;;5.97;;
81180;SDS011;70650;51.408;7.132;2024-03-07T14:06:48;14.73;;;5.47;;
81180;SDS011;70650;51.408;7.132;2024-03-07T14:14:45;14.18;;;5.43;;
81180;SDS011;70650;51.408;7.132;2024-03-07T14:26:48;10.73;;;3.90;;
81180;SDS011;70650;51.408;7.132;2024-03-07T14:32:04;9.52;;;3.35;;
81180;SDS011;70650;51.408;7.132;2024-03-07T14:37:25;10.13;;;3.50;;
81180;SDS011;70650;51.408;7.132;2024-03-07T14:39:56;9.05;;;3.35;;
81180;SDS011;70650;51.408;7.132;2024-03-07T14:42:35;9.18;;;3.35;;
81180;SDS011;70650;51.408;7.132;2024-03-07T14:45:02;10.90;;;4.40;;
81180;SDS011;70650;51.408;7.132;2024-03-07T14:47:32;9.27;;;3.55;;
81180;SDS011;70650;51.408;7.132;2024-03-07T14:49:58;10.90;;;4.13;;
81180;SDS011;70650;51.408;7.132;2024-03-07T14:52:24;10.13;;;4.00;;
81180;SDS011;70650;51.408;7.132;2024-03-07T14:54:52;9.73;;;3.42;;
81180;SDS011;70650;51.408;7.132;2024-03-07T14:57:17;9.50;;;3.40;;
81180;SDS011;70650;51.408;7.132;2024-03-07T14:59:43;10.10;;;3.50;;
81180;SDS011;70650;51.408;7.132;2024-03-07T15:02:10;9.20;;;3.50;;
81180;SDS011;70650;51.408;7.132;2024-03-07T15:04:39;9.35;;;3.60;;
81180;SDS011;70650;51.408;7.132;2024-03-07T15:07:06;9.38;;;3.60;;
81180;SDS011;70650;51.408;7.132;2024-03-07T15:09:34;10.57;;;3.67;;
81180;SDS011;70650;51.408;7.132;2024-03-07T15:12:00;9.90;;;3.80;;
81180;SDS011;70650;51.408;7.132;2024-03-07T15:14:25;9.68;;;3.85;;